createdAt,value
2019-05-10T00:00:16.010Z,7.73
2019-05-10T00:03:02.469Z,5.80
2019-05-10T00:05:49.573Z,9.93
2019-05-10T00:08:36.513Z,6.20
2019-05-10T00:11:07.771Z,7.57
2019-05-10T00:13:54.238Z,7.60
2019-05-10T00:16:23.684Z,6.60
2019-05-10T00:18:52.337Z,7.40
2019-05-10T00:21:20.968Z,6.97
2019-05-10T00:23:49.495Z,7.27
2019-05-10T00:26:17.956Z,6.37
2019-05-10T00:28:46.446Z,5.60
2019-05-10T00:31:14.909Z,5.87
2019-05-10T00:33:43.418Z,7.07
2019-05-10T00:36:11.877Z,6.97
2019-05-10T00:38:40.369Z,7.47
2019-05-10T00:41:08.836Z,5.73
2019-05-10T00:43:37.302Z,6.87
2019-05-10T00:46:05.886Z,4.83
2019-05-10T00:48:34.353Z,6.17
2019-05-10T00:51:02.852Z,4.97
2019-05-10T00:53:31.329Z,5.73
2019-05-10T00:55:59.845Z,5.27
2019-05-10T00:58:28.307Z,5.43
2019-05-10T01:00:56.803Z,4.37
2019-05-10T01:03:25.304Z,5.33
2019-05-10T01:05:53.969Z,7.33
2019-05-10T01:08:22.441Z,4.40
2019-05-10T01:10:50.944Z,5.10
2019-05-10T01:13:19.388Z,4.80
2019-05-10T01:15:47.886Z,7.00
2019-05-10T01:18:16.441Z,5.43
2019-05-10T01:20:44.936Z,4.70
2019-05-10T01:23:13.430Z,3.70
2019-05-10T01:25:41.914Z,5.87
2019-05-10T01:28:10.381Z,6.70
2019-05-10T01:30:38.862Z,4.00
2019-05-10T01:33:07.329Z,4.83
2019-05-10T01:35:35.816Z,6.03
2019-05-10T01:38:04.308Z,7.23
2019-05-10T01:40:32.863Z,4.23
2019-05-10T01:43:01.318Z,5.43
2019-05-10T01:45:29.813Z,5.70
2019-05-10T01:47:58.278Z,5.40
2019-05-10T01:50:26.755Z,7.27
2019-05-10T01:52:55.222Z,6.67
2019-05-10T01:55:23.714Z,4.33
2019-05-10T01:57:52.182Z,4.53
2019-05-10T02:00:21.121Z,5.43
2019-05-10T02:02:49.599Z,5.43
2019-05-10T02:05:18.627Z,4.67
2019-05-10T02:07:47.105Z,6.40
2019-05-10T02:10:16.325Z,3.60
2019-05-10T02:12:44.820Z,4.10
2019-05-10T02:15:13.610Z,3.80
2019-05-10T02:17:42.103Z,5.60
2019-05-10T02:20:10.850Z,4.70
2019-05-10T02:22:39.371Z,4.77
2019-05-10T02:25:07.983Z,5.97
2019-05-10T02:27:36.502Z,6.63
2019-05-10T02:30:06.501Z,4.90
2019-05-10T02:32:35.063Z,4.97
2019-05-10T02:35:04.607Z,4.03
2019-05-10T02:37:33.180Z,7.63
2019-05-10T02:40:01.663Z,5.83
2019-05-10T02:42:30.240Z,5.17
2019-05-10T02:44:58.723Z,4.20
2019-05-10T02:47:27.335Z,3.70
2019-05-10T02:49:58.986Z,4.13
2019-05-10T02:52:26.113Z,4.40
2019-05-10T02:54:54.957Z,6.13
2019-05-10T02:57:23.789Z,4.97
2019-05-10T02:59:53.383Z,6.73
2019-05-10T03:02:22.611Z,6.70
2019-05-10T03:04:53.900Z,4.50
2019-05-10T03:07:25.454Z,6.57
2019-05-10T03:10:10.943Z,6.47
2019-05-10T03:12:42.684Z,5.20
2019-05-10T03:15:12.619Z,5.53
2019-05-10T03:17:41.929Z,6.10
2019-05-10T03:20:12.706Z,4.17
2019-05-10T03:22:44.601Z,5.47
2019-05-10T03:25:13.695Z,4.17
2019-05-10T03:27:42.710Z,6.60
2019-05-10T03:30:12.014Z,3.23
2019-05-10T03:32:40.514Z,3.97
2019-05-10T03:35:09.657Z,3.43
2019-05-10T03:37:38.649Z,5.33
2019-05-10T03:40:09.146Z,4.00
2019-05-10T03:42:37.889Z,4.50
2019-05-10T03:45:08.093Z,4.03
2019-05-10T03:47:36.610Z,5.70
2019-05-10T03:50:08.673Z,3.73
2019-05-10T03:52:37.189Z,4.47
2019-05-10T03:55:07.080Z,3.70
2019-05-10T03:57:35.564Z,5.57
2019-05-10T04:00:12.036Z,3.53
2019-05-10T04:02:40.535Z,5.90
2019-05-10T04:05:09.236Z,3.70
2019-05-10T04:07:37.738Z,3.83
2019-05-10T04:10:07.754Z,5.00
2019-05-10T04:12:36.321Z,3.30
2019-05-10T04:15:07.398Z,5.97
2019-05-10T04:17:36.019Z,6.13
2019-05-10T04:20:07.491Z,4.10
2019-05-10T04:22:36.046Z,4.57
2019-05-10T04:25:05.355Z,5.70
2019-05-10T04:27:33.887Z,7.37
2019-05-10T04:30:02.365Z,5.63
2019-05-10T04:32:30.862Z,5.57
2019-05-10T04:34:59.353Z,4.70
2019-05-10T04:37:38.436Z,4.23
2019-05-10T04:40:07.350Z,4.27
2019-05-10T04:42:35.971Z,4.80
2019-05-10T04:45:05.643Z,4.57
2019-05-10T04:47:34.104Z,3.53
2019-05-10T04:50:02.586Z,4.67
2019-05-10T04:52:31.054Z,3.33
2019-05-10T04:54:59.557Z,3.70
2019-05-10T04:57:28.033Z,4.53
2019-05-10T04:59:56.517Z,3.90
2019-05-10T05:02:24.982Z,3.00
2019-05-10T05:04:53.503Z,3.13
2019-05-10T05:07:21.970Z,4.73
2019-05-10T05:09:50.492Z,3.90
2019-05-10T05:12:18.985Z,4.77
2019-05-10T05:14:47.654Z,3.10
2019-05-10T05:17:16.185Z,3.33
2019-05-10T05:19:44.700Z,3.00
2019-05-10T05:22:13.306Z,4.07
2019-05-10T05:24:41.805Z,6.37
2019-05-10T05:27:10.284Z,4.10
2019-05-10T05:29:38.826Z,2.77
2019-05-10T05:32:07.292Z,4.27
2019-05-10T05:34:35.772Z,3.20
2019-05-10T05:37:04.418Z,6.13
2019-05-10T05:39:32.900Z,6.97
2019-05-10T05:42:01.368Z,3.80
2019-05-10T05:44:29.929Z,3.37
2019-05-10T05:46:58.402Z,2.60
2019-05-10T05:49:26.899Z,3.07
2019-05-10T05:51:55.376Z,2.70
2019-05-10T05:54:23.920Z,3.83
2019-05-10T05:56:53.166Z,6.83
2019-05-10T05:59:25.955Z,2.93
2019-05-10T06:01:53.652Z,2.50
2019-05-10T06:04:22.139Z,2.63
2019-05-10T06:06:53.747Z,2.63
2019-05-10T06:09:21.004Z,5.80
2019-05-10T06:11:49.486Z,3.97
2019-05-10T06:14:17.993Z,3.80
2019-05-10T06:16:51.477Z,2.90
2019-05-10T06:19:19.869Z,3.83
2019-05-10T06:21:46.876Z,3.73
2019-05-10T06:24:15.833Z,2.50
2019-05-10T06:26:44.469Z,5.47
2019-05-10T06:29:17.535Z,3.47
2019-05-10T06:31:43.251Z,4.90
2019-05-10T06:34:11.748Z,4.63
2019-05-10T06:36:40.278Z,6.17
2019-05-10T06:39:09.055Z,3.80
2019-05-10T06:41:37.510Z,3.97
2019-05-10T06:44:06.195Z,4.47
2019-05-10T06:46:34.684Z,4.17
2019-05-10T06:49:08.456Z,4.00
2019-05-10T06:51:33.481Z,7.00
2019-05-10T06:54:01.961Z,4.70
2019-05-10T06:56:30.459Z,6.03
2019-05-10T06:59:12.222Z,5.87
2019-05-10T07:01:29.184Z,4.27
2019-05-10T07:03:57.659Z,6.53
2019-05-10T07:06:26.211Z,6.27
2019-05-10T07:08:57.830Z,3.83
2019-05-10T07:11:24.915Z,4.60
2019-05-10T07:13:53.419Z,5.60
2019-05-10T07:16:25.554Z,4.90
2019-05-10T07:18:54.742Z,5.40
2019-05-10T07:21:22.291Z,3.83
2019-05-10T07:23:50.757Z,4.10
2019-05-10T07:26:23.873Z,4.50
2019-05-10T07:28:51.779Z,6.43
2019-05-10T07:31:23.367Z,7.77
2019-05-10T07:33:49.851Z,7.63
2019-05-10T07:36:20.819Z,7.63
2019-05-10T07:38:48.643Z,6.87
2019-05-10T07:41:19.747Z,8.77
2019-05-10T07:43:48.228Z,7.23
2019-05-10T07:46:16.919Z,7.03
2019-05-10T07:48:46.957Z,7.00
2019-05-10T07:51:15.674Z,9.10
2019-05-10T07:53:44.155Z,6.90
2019-05-10T07:56:12.640Z,9.93
2019-05-10T07:58:43.169Z,7.63
2019-05-10T08:01:11.341Z,6.80
2019-05-10T08:03:44.386Z,7.40
2019-05-10T08:06:10.134Z,7.70
2019-05-10T08:08:39.225Z,8.20
2019-05-10T08:11:08.562Z,8.10
2019-05-10T08:13:39.364Z,9.13
2019-05-10T08:16:11.830Z,10.00
2019-05-10T08:18:41.990Z,8.93
2019-05-10T08:21:20.873Z,10.73
2019-05-10T08:23:38.398Z,8.58
2019-05-10T08:26:11.042Z,9.23
2019-05-10T08:28:39.817Z,9.87
2019-05-10T08:31:07.360Z,10.40
2019-05-10T08:33:36.418Z,9.30
2019-05-10T08:36:05.676Z,12.78
2019-05-10T08:38:34.250Z,9.87
2019-05-10T08:41:07.926Z,9.30
2019-05-10T08:43:38.927Z,9.20
2019-05-10T08:46:03.248Z,8.90
2019-05-10T08:48:33.069Z,9.70
2019-05-10T08:51:04.063Z,9.80
2019-05-10T08:53:32.890Z,11.13
2019-05-10T08:56:02.261Z,9.80
2019-05-10T08:58:36.967Z,11.27
2019-05-10T09:01:16.242Z,10.47
2019-05-10T09:03:32.364Z,10.77
2019-05-10T09:06:03.429Z,10.90
2019-05-10T09:08:34.612Z,12.60
2019-05-10T09:11:06.588Z,9.60
2019-05-10T09:13:37.113Z,9.80
2019-05-10T09:16:02.613Z,9.07
2019-05-10T09:18:33.125Z,10.03
2019-05-10T09:21:08.568Z,9.23
2019-05-10T09:23:32.659Z,8.73
2019-05-10T09:26:09.896Z,9.83
2019-05-10T09:28:32.205Z,9.43
2019-05-10T09:31:16.512Z,9.20
2019-05-10T09:33:31.992Z,10.97
2019-05-10T09:36:02.789Z,10.40
2019-05-10T09:38:34.764Z,24.97
2019-05-10T09:41:02.473Z,10.57
2019-05-10T09:43:31.932Z,10.60
2019-05-10T09:46:02.727Z,12.07
2019-05-10T09:48:33.082Z,11.30
2019-05-10T09:51:04.018Z,11.37
2019-05-10T09:53:31.376Z,11.77
2019-05-10T09:56:02.883Z,10.90
2019-05-10T09:58:30.069Z,13.27
2019-05-10T10:01:14.036Z,12.83
2019-05-10T10:03:30.118Z,11.97
2019-05-10T10:06:05.167Z,11.37
2019-05-10T10:08:29.603Z,11.83
2019-05-10T10:11:01.360Z,13.83
2019-05-10T10:13:39.354Z,13.80
2019-05-10T10:15:58.749Z,12.53
2019-05-10T10:18:28.369Z,11.60
2019-05-10T10:20:57.122Z,13.53
2019-05-10T10:23:30.685Z,12.97
2019-05-10T10:25:57.805Z,9.50
2019-05-10T10:28:28.381Z,8.80
2019-05-10T10:31:03.273Z,11.57
2019-05-10T10:33:29.030Z,7.53
2019-05-10T10:36:04.629Z,9.07
2019-05-10T10:38:30.945Z,9.80
2019-05-10T10:40:57.568Z,10.67
2019-05-10T10:43:27.263Z,10.67
2019-05-10T10:45:57.404Z,8.80
2019-05-10T10:48:28.270Z,9.57
2019-05-10T10:50:58.657Z,8.73
2019-05-10T10:53:28.202Z,6.57
2019-05-10T10:56:03.610Z,6.13
2019-05-10T10:58:27.530Z,5.33
2019-05-10T11:00:56.266Z,5.40
2019-05-10T11:03:30.173Z,6.93
2019-05-10T11:05:55.024Z,5.47
2019-05-10T11:08:23.529Z,6.77
2019-05-10T11:10:52.006Z,8.23
2019-05-10T11:13:40.498Z,6.87
2019-05-10T11:15:51.697Z,8.43
2019-05-10T11:18:21.584Z,7.50
2019-05-10T11:20:53.859Z,8.73
2019-05-10T11:23:24.516Z,8.10
2019-05-10T11:25:56.277Z,6.30
2019-05-10T11:28:21.087Z,8.23
2019-05-10T11:30:51.189Z,8.20
2019-05-10T11:33:29.099Z,6.73
2019-05-10T11:35:51.365Z,9.23
2019-05-10T11:38:21.434Z,7.00
2019-05-10T11:40:50.145Z,7.37
2019-05-10T11:43:23.942Z,9.10
2019-05-10T11:45:51.339Z,7.57
2019-05-10T11:48:21.454Z,8.30
2019-05-10T11:50:51.373Z,9.33
2019-05-10T11:53:20.966Z,10.17
2019-05-10T11:55:51.708Z,8.50
2019-05-10T11:58:23.517Z,8.77
2019-05-10T12:00:55.843Z,9.50
2019-05-10T12:03:23.499Z,7.97
2019-05-10T12:05:53.171Z,11.93
2019-05-10T12:08:22.329Z,8.23
2019-05-10T12:10:53.386Z,7.33
2019-05-10T12:13:24.939Z,7.60
2019-05-10T12:15:52.234Z,7.40
2019-05-10T12:21:00.268Z,5.50
2019-05-10T12:23:29.709Z,5.20
2019-05-10T12:26:31.279Z,6.20
2019-05-10T12:26:50.485Z,7.13
2019-05-10T12:28:28.496Z,4.17
2019-05-10T12:30:51.938Z,5.70
2019-05-10T12:33:24.907Z,3.80
2019-05-10T12:35:51.064Z,9.57
2019-05-10T12:38:23.560Z,4.10
2019-05-10T12:40:51.315Z,2.50
2019-05-10T12:43:21.114Z,1.70
2019-05-10T12:45:51.829Z,1.27
2019-05-10T12:48:23.138Z,1.53
2019-05-10T12:50:54.466Z,1.40
2019-05-10T12:53:21.471Z,1.17
2019-05-10T12:55:50.265Z,2.57
2019-05-10T12:58:19.625Z,1.93
2019-05-10T13:00:52.733Z,1.73
2019-05-10T13:03:19.835Z,2.10
2019-05-10T13:05:52.880Z,2.10
2019-05-10T13:08:19.589Z,1.90
2019-05-10T13:10:49.946Z,4.10
2019-05-10T13:13:23.709Z,1.90
2019-05-10T13:15:48.548Z,3.07
2019-05-10T13:18:17.029Z,3.87
2019-05-10T13:20:45.554Z,3.97
2019-05-10T13:23:16.022Z,2.50
2019-05-10T13:25:44.314Z,2.33
2019-05-10T13:28:12.800Z,2.93
2019-05-10T13:30:41.450Z,4.10
2019-05-10T13:33:09.940Z,4.73
2019-05-10T13:35:38.581Z,3.03
2019-05-10T13:38:07.118Z,6.57
2019-05-10T13:40:38.901Z,5.13
2019-05-10T13:43:05.866Z,5.57
2019-05-10T13:45:37.586Z,7.40
2019-05-10T13:48:04.641Z,6.80
2019-05-10T13:50:33.201Z,6.47
2019-05-10T13:53:01.809Z,4.20
2019-05-10T13:55:30.337Z,5.97
2019-05-10T13:57:58.845Z,5.53
2019-05-10T14:00:33.098Z,6.67
2019-05-10T14:02:57.853Z,8.07
2019-05-10T14:05:26.336Z,5.63
2019-05-10T14:07:54.858Z,4.93
2019-05-10T14:10:25.152Z,8.47
2019-05-10T14:12:56.275Z,6.20
2019-05-10T14:15:23.828Z,8.67
2019-05-10T14:17:52.355Z,7.77
2019-05-10T14:20:25.323Z,7.07
2019-05-10T14:22:55.695Z,6.50
2019-05-10T14:25:21.669Z,6.93
2019-05-10T14:27:50.168Z,7.57
2019-05-10T14:30:19.172Z,8.30
2019-05-10T14:32:47.668Z,7.93
2019-05-10T14:35:22.564Z,8.37
2019-05-10T14:37:47.984Z,7.03
2019-05-10T14:40:27.387Z,6.60
2019-05-10T14:42:47.298Z,6.23
2019-05-10T14:45:16.042Z,6.10
2019-05-10T14:47:48.292Z,8.63
2019-05-10T14:50:19.445Z,6.73
2019-05-10T14:52:45.443Z,5.83
2019-05-10T14:55:13.939Z,6.37
2019-05-10T14:57:42.443Z,5.90
2019-05-10T15:00:12.704Z,16.70
2019-05-10T15:02:41.187Z,12.43
2019-05-10T15:05:15.638Z,6.57
2019-05-10T15:07:40.150Z,7.87
2019-05-10T15:10:08.978Z,4.73
2019-05-10T15:12:37.484Z,6.83
2019-05-10T15:15:07.324Z,5.63
2019-05-10T15:17:35.900Z,2.90
2019-05-10T15:20:07.019Z,4.03
2019-05-10T15:22:35.513Z,3.40
2019-05-10T15:25:05.468Z,3.03
2019-05-10T15:27:34.156Z,3.20
2019-05-10T15:30:05.181Z,2.90
2019-05-10T15:32:32.997Z,2.80
2019-05-10T15:35:07.548Z,3.70
2019-05-10T15:37:31.717Z,3.93
2019-05-10T15:40:05.649Z,2.43
2019-05-10T15:42:36.327Z,2.77
2019-05-10T15:45:05.389Z,7.83
2019-05-10T15:47:31.254Z,5.03
2019-05-10T15:50:01.286Z,8.07
2019-05-10T15:52:30.105Z,3.57
2019-05-10T15:54:58.602Z,3.23
2019-05-10T15:57:27.095Z,6.43
2019-05-10T15:59:59.130Z,3.93
2019-05-10T16:02:25.864Z,3.80
2019-05-10T16:04:54.382Z,3.50
2019-05-10T16:07:22.908Z,2.40
2019-05-10T16:09:54.547Z,2.40
2019-05-10T16:12:21.673Z,2.17
2019-05-10T16:14:50.178Z,5.57
2019-05-10T16:17:23.530Z,1.80
2019-05-10T16:19:50.484Z,2.07
2019-05-10T16:22:19.077Z,2.30
2019-05-10T16:24:47.575Z,2.63
2019-05-10T16:27:16.040Z,4.10
2019-05-10T16:29:44.534Z,2.73
2019-05-10T16:32:13.074Z,4.60
2019-05-10T16:34:41.533Z,1.90
2019-05-10T16:37:10.005Z,2.93
2019-05-10T16:39:38.582Z,2.70
2019-05-10T16:42:07.045Z,2.40
2019-05-10T16:44:35.531Z,9.37
2019-05-10T16:47:04.014Z,12.67
2019-05-10T16:49:32.531Z,2.73
2019-05-10T16:52:01.010Z,2.53
2019-05-10T16:54:30.149Z,2.17
2019-05-10T16:56:59.759Z,2.13
2019-05-10T16:59:29.667Z,1.93
2019-05-10T17:02:04.623Z,1.73
2019-05-10T17:04:32.183Z,1.93
2019-05-10T17:06:59.493Z,2.93
2019-05-10T17:09:27.995Z,2.00
2019-05-10T17:11:59.080Z,3.17
2019-05-10T17:14:26.756Z,3.20
2019-05-10T17:16:58.877Z,2.83
2019-05-10T17:19:27.983Z,2.33
2019-05-10T17:21:55.699Z,3.37
2019-05-10T17:24:25.529Z,2.30
2019-05-10T17:26:54.168Z,2.90
2019-05-10T17:29:22.712Z,2.40
2019-05-10T17:31:51.245Z,5.23
2019-05-10T17:34:27.876Z,2.80
2019-05-10T17:36:51.694Z,2.53
2019-05-10T17:39:20.164Z,2.50
2019-05-10T17:41:48.700Z,2.20
2019-05-10T17:44:17.472Z,2.33
2019-05-10T17:46:50.303Z,3.17
2019-05-10T17:49:18.591Z,2.20
2019-05-10T17:51:47.409Z,5.53
2019-05-10T17:54:15.835Z,2.33
2019-05-10T17:56:44.320Z,2.50
2019-05-10T17:59:13.966Z,2.63
2019-05-10T18:01:42.628Z,3.10
2019-05-10T18:04:11.095Z,4.07
2019-05-10T18:06:39.578Z,2.30
2019-05-10T18:09:08.190Z,2.47
2019-05-10T18:11:42.396Z,2.43
2019-05-10T18:14:06.904Z,2.17
2019-05-10T18:16:35.385Z,3.13
2019-05-10T18:19:03.867Z,3.73
2019-05-10T18:21:32.359Z,2.90
2019-05-10T18:24:00.893Z,4.93
2019-05-10T18:26:34.238Z,4.40
2019-05-10T18:28:59.594Z,2.83
2019-05-10T18:31:28.107Z,2.43
2019-05-10T18:33:56.571Z,2.67
2019-05-10T18:36:49.934Z,2.93
2019-05-10T18:38:55.262Z,3.13
2019-05-10T18:41:23.749Z,4.23
2019-05-10T18:43:52.229Z,2.43
2019-05-10T18:46:20.713Z,2.83
2019-05-10T18:48:49.183Z,2.57
2019-05-10T18:51:23.488Z,2.50
2019-05-10T18:53:47.905Z,2.17
2019-05-10T18:56:16.411Z,2.20
2019-05-10T18:58:44.891Z,4.00
2019-05-10T19:01:13.399Z,2.93
2019-05-10T19:03:41.851Z,2.43
2019-05-10T19:06:11.336Z,2.57
2019-05-10T19:08:41.081Z,2.43
2019-05-10T19:11:10.389Z,2.80
2019-05-10T19:13:47.946Z,3.13
2019-05-10T19:16:10.984Z,4.30
2019-05-10T19:18:39.451Z,3.93
2019-05-10T19:21:07.953Z,3.27
2019-05-10T19:23:36.427Z,2.60
2019-05-10T19:26:04.938Z,3.07
2019-05-10T19:28:33.390Z,3.83
2019-05-10T19:31:01.861Z,3.20
2019-05-10T19:33:36.135Z,4.03
2019-05-10T19:36:00.541Z,2.63
2019-05-10T19:38:29.091Z,3.67
2019-05-10T19:40:57.630Z,5.90
2019-05-10T19:43:26.134Z,5.10
2019-05-10T19:45:57.486Z,4.20
2019-05-10T19:48:29.435Z,3.40
2019-05-10T19:50:55.091Z,4.30
2019-05-10T19:53:23.591Z,3.37
2019-05-10T19:55:57.305Z,8.37
2019-05-10T19:58:26.500Z,8.13
2019-05-10T20:00:52.529Z,7.07
2019-05-10T20:03:21.013Z,9.27
2019-05-10T20:05:49.514Z,7.27
2019-05-10T20:08:18.008Z,6.50
2019-05-10T20:10:46.486Z,6.70
2019-05-10T20:13:14.970Z,5.70
2019-05-10T20:15:43.436Z,5.27
2019-05-10T20:18:11.939Z,7.13
2019-05-10T20:20:40.439Z,6.03
2019-05-10T20:23:08.931Z,5.07
2019-05-10T20:25:37.382Z,5.60
2019-05-10T20:28:06.542Z,5.40
2019-05-10T20:30:35.334Z,6.50
2019-05-10T20:33:03.813Z,5.07
2019-05-10T20:35:32.289Z,7.37
2019-05-10T20:38:02.518Z,5.87
2019-05-10T20:40:30.968Z,6.13
2019-05-10T20:42:59.477Z,4.97
2019-05-10T20:45:27.945Z,3.83
2019-05-10T20:47:56.448Z,3.37
2019-05-10T20:50:24.924Z,3.60
2019-05-10T20:52:53.414Z,3.37
2019-05-10T20:55:21.960Z,4.70
2019-05-10T20:57:50.460Z,4.13
2019-05-10T21:00:19.265Z,5.50
2019-05-10T21:02:47.781Z,3.43
2019-05-10T21:05:16.266Z,5.27
2019-05-10T21:07:44.774Z,5.90
2019-05-10T21:10:13.717Z,5.40
2019-05-10T21:12:42.222Z,5.50
2019-05-10T21:15:10.796Z,2.90
2019-05-10T21:17:39.275Z,4.60
2019-05-10T21:20:08.001Z,6.10
2019-05-10T21:22:36.491Z,3.20
2019-05-10T21:25:07.249Z,4.40
2019-05-10T21:27:35.722Z,3.30
2019-05-10T21:30:05.959Z,4.00
2019-05-10T21:32:34.425Z,7.93
2019-05-10T21:35:02.923Z,5.70
2019-05-10T21:37:31.387Z,3.73
2019-05-10T21:39:59.884Z,5.17
2019-05-10T21:42:28.348Z,4.17
2019-05-10T21:44:56.844Z,6.03
2019-05-10T21:47:25.334Z,3.97
2019-05-10T21:49:53.821Z,5.00
2019-05-10T21:52:22.294Z,4.23
2019-05-10T21:54:50.797Z,4.93
2019-05-10T21:57:19.286Z,5.40
2019-05-10T21:59:54.690Z,3.87
2019-05-10T22:02:23.348Z,3.47
2019-05-10T22:04:51.833Z,4.10
2019-05-10T22:07:20.312Z,6.20
2019-05-10T22:09:48.929Z,5.47
2019-05-10T22:12:17.405Z,4.50
2019-05-10T22:14:45.891Z,8.17
2019-05-10T22:17:14.352Z,5.97
2019-05-10T22:19:42.858Z,6.13
2019-05-10T22:22:11.334Z,7.60
2019-05-10T22:24:39.841Z,6.17
2019-05-10T22:27:08.302Z,8.47
2019-05-10T22:29:36.803Z,5.70
2019-05-10T22:32:05.336Z,5.37
2019-05-10T22:34:33.854Z,4.87
2019-05-10T22:37:02.302Z,4.93
2019-05-10T22:39:30.786Z,6.47
2019-05-10T22:41:59.271Z,4.90
2019-05-10T22:44:27.776Z,7.13
2019-05-10T22:46:56.283Z,5.10
2019-05-10T22:49:24.802Z,5.87
2019-05-10T22:51:53.269Z,4.80
2019-05-10T22:54:22.151Z,11.83
2019-05-10T22:56:50.619Z,4.83
2019-05-10T22:59:19.111Z,5.90
2019-05-10T23:01:47.590Z,6.43
2019-05-10T23:04:16.169Z,5.97
2019-05-10T23:06:44.695Z,6.30
2019-05-10T23:09:23.978Z,5.60
2019-05-10T23:11:43.364Z,6.43
2019-05-10T23:14:11.939Z,7.37
2019-05-10T23:16:40.414Z,8.43
2019-05-10T23:19:08.881Z,6.63
2019-05-10T23:21:37.387Z,6.80
2019-05-10T23:24:08.668Z,6.90
2019-05-10T23:26:37.157Z,5.10
2019-05-10T23:29:05.683Z,5.40
2019-05-10T23:31:35.581Z,8.00
2019-05-10T23:34:04.297Z,4.93
2019-05-10T23:36:32.787Z,4.47
2019-05-10T23:39:01.269Z,4.60
2019-05-10T23:41:29.759Z,5.40
2019-05-10T23:43:58.228Z,4.67
2019-05-10T23:46:26.725Z,4.97
2019-05-10T23:48:55.200Z,4.37
2019-05-10T23:51:23.736Z,6.63
2019-05-10T23:53:52.463Z,7.87
2019-05-10T23:56:20.994Z,6.30
2019-05-10T23:58:49.506Z,7.43
